< < Back
Terminal Aerodrome Forecast


Current Version              Previous Versions:   1  2  3  4  5  6  7  8  9  

Terminal Aerodrome Forecast

172
FTUS42 KFFC 261122
TAFCSG
TAF
KCSG 261122Z 2612/2712 00000KT P6SM SKC
     FM261400 11009KT P6SM FEW045
     FM270100 10003KT P6SM SCT250=

Latest METAR

228
SAUS70 KWBC 270900
MTRCSG
METAR KCSG 270851Z AUTO 00000KT 10SM CLR 24/20 A3003 RMK AO2 SLP161
T02390200 56012


USA.gov is the U.S. government's official web portal to all federal, state and local government web resources and services.